createdAt,value
2023-05-11T00:00:33.501Z,100873.59
2023-05-11T00:02:59.952Z,100863.91
2023-05-11T00:05:26.555Z,100868.59
2023-05-11T00:07:52.931Z,100871.34
2023-05-11T00:10:19.553Z,100866.47
2023-05-11T00:12:46.060Z,100863.16
2023-05-11T00:15:12.477Z,100863.22
2023-05-11T00:17:38.871Z,100861.63
2023-05-11T00:20:06.212Z,100860.03
2023-05-11T00:22:32.573Z,100869.97
2023-05-11T00:24:58.958Z,100863.69
2023-05-11T00:27:25.560Z,100855.47
2023-05-11T00:29:52.076Z,100860.94
2023-05-11T00:32:18.467Z,100863.69
2023-05-11T00:34:44.888Z,100863.63
2023-05-11T00:37:11.316Z,100864.44
2023-05-11T00:39:40.409Z,100857.66
2023-05-11T00:42:06.954Z,100854.31
2023-05-11T00:44:33.346Z,100851.50
2023-05-11T00:46:59.915Z,100853.38
2023-05-11T00:49:26.792Z,100859.50
2023-05-11T00:51:53.337Z,100860.63
2023-05-11T00:54:20.395Z,100857.53
2023-05-11T00:56:48.279Z,100857.94
2023-05-11T00:59:14.742Z,100859.38
2023-05-11T01:01:41.256Z,100866.56
2023-05-11T01:04:07.875Z,100865.59
2023-05-11T01:06:47.525Z,100864.38
2023-05-11T01:09:25.264Z,100865.00
2023-05-11T01:12:00.284Z,100862.88
2023-05-11T01:14:48.436Z,100865.69
2023-05-11T01:17:25.583Z,100863.59
2023-05-11T01:19:57.591Z,100863.75
2023-05-11T01:22:36.574Z,100865.22
2023-05-11T01:25:21.838Z,100872.19
2023-05-11T01:28:25.942Z,100868.00
2023-05-11T01:31:01.781Z,100867.59
2023-05-11T01:33:32.776Z,100872.72
2023-05-11T01:36:05.345Z,100871.13
2023-05-11T01:38:38.630Z,100867.13
2023-05-11T01:41:12.135Z,100864.66
2023-05-11T01:43:40.846Z,100869.56
2023-05-11T01:46:10.284Z,100880.56
2023-05-11T01:48:40.727Z,100882.56
2023-05-11T01:51:08.981Z,100882.06
2023-05-11T01:53:37.649Z,100889.44
2023-05-11T01:56:05.941Z,100882.56
2023-05-11T01:58:35.879Z,100889.81
2023-05-11T02:01:03.601Z,100888.88
2023-05-11T02:03:32.822Z,100896.00
2023-05-11T02:06:01.042Z,100891.22
2023-05-11T02:08:31.166Z,100893.44
2023-05-11T02:10:59.210Z,100889.78
2023-05-11T02:13:27.418Z,100899.69
2023-05-11T02:15:57.033Z,100895.53
2023-05-11T02:18:24.431Z,100898.06
2023-05-11T02:20:52.176Z,100896.34
2023-05-11T02:23:20.502Z,100902.50
2023-05-11T02:25:47.592Z,100897.34
2023-05-11T02:28:13.970Z,100897.34
2023-05-11T02:30:45.885Z,100901.91
2023-05-11T02:33:17.765Z,100899.75
2023-05-11T02:35:44.831Z,100906.94
2023-05-11T02:38:12.463Z,100909.50
2023-05-11T02:40:45.756Z,100907.59
2023-05-11T02:43:15.612Z,100906.63
2023-05-11T02:45:44.505Z,100909.91
2023-05-11T02:48:21.390Z,100912.53
2023-05-11T02:50:49.941Z,100911.31
2023-05-11T02:53:17.540Z,100907.72
2023-05-11T02:55:44.036Z,100909.22
2023-05-11T02:58:11.176Z,100908.88
2023-05-11T03:00:39.499Z,100904.94
2023-05-11T03:03:06.281Z,100914.03
2023-05-11T03:05:32.764Z,100912.44
2023-05-11T03:07:59.960Z,100909.97
2023-05-11T03:10:27.774Z,100902.38
2023-05-11T03:12:54.408Z,100912.22
2023-05-11T03:15:21.714Z,100914.53
2023-05-11T03:17:50.122Z,100910.41
2023-05-11T03:20:17.587Z,100906.91
2023-05-11T03:22:45.758Z,100908.84
2023-05-11T03:25:12.547Z,100906.97
2023-05-11T03:27:41.912Z,100906.59
2023-05-11T03:30:09.613Z,100909.03
2023-05-11T03:32:36.514Z,100912.75
2023-05-11T03:35:03.123Z,100910.41
2023-05-11T03:37:31.214Z,100903.13
2023-05-11T03:39:59.293Z,100913.00
2023-05-11T03:42:27.193Z,100906.78
2023-05-11T03:44:58.368Z,100917.34
2023-05-11T03:47:26.228Z,100911.00
2023-05-11T03:49:53.434Z,100915.00
2023-05-11T03:52:21.168Z,100919.97
2023-05-11T03:54:47.664Z,100913.44
2023-05-11T03:57:14.968Z,100914.78
2023-05-11T03:59:41.335Z,100917.72
2023-05-11T04:02:08.367Z,100913.34
2023-05-11T04:04:34.905Z,100908.53
2023-05-11T04:07:01.392Z,100911.63
2023-05-11T04:09:27.736Z,100912.16
2023-05-11T04:11:54.120Z,100916.25
2023-05-11T04:14:23.142Z,100911.63
2023-05-11T04:16:49.497Z,100912.75
2023-05-11T04:19:16.608Z,100919.19
2023-05-11T04:21:42.977Z,100910.47
2023-05-11T04:24:09.358Z,100918.91
2023-05-11T04:26:35.712Z,100918.34
2023-05-11T04:29:02.095Z,100919.66
2023-05-11T04:31:30.280Z,100927.69
2023-05-11T04:33:56.723Z,100926.53
2023-05-11T04:36:23.077Z,100925.06
2023-05-11T04:38:49.442Z,100925.63
2023-05-11T04:41:15.924Z,100927.38
2023-05-11T04:43:42.294Z,100926.00
2023-05-11T04:46:08.633Z,100926.13
2023-05-11T04:48:34.985Z,100933.41
2023-05-11T04:51:04.103Z,100937.91
2023-05-11T04:53:30.831Z,100944.94
2023-05-11T04:55:57.322Z,100941.22
2023-05-11T04:58:23.705Z,100946.66
2023-05-11T05:00:50.353Z,100942.47
2023-05-11T05:03:16.805Z,100938.09
2023-05-11T05:05:43.179Z,100939.53
2023-05-11T05:08:09.563Z,100942.53
2023-05-11T05:10:35.911Z,100947.03
2023-05-11T05:13:02.284Z,100944.66
2023-05-11T05:15:28.683Z,100947.59
2023-05-11T05:17:55.112Z,100948.03
2023-05-11T05:20:21.516Z,100945.97
2023-05-11T05:22:47.871Z,100949.63
2023-05-11T05:25:14.246Z,100951.88
2023-05-11T05:27:40.617Z,100952.25
2023-05-11T05:30:07.501Z,100955.47
2023-05-11T05:32:33.888Z,100947.72
2023-05-11T05:35:00.342Z,100957.06
2023-05-11T05:37:26.705Z,100956.22
2023-05-11T05:39:53.072Z,100950.13
2023-05-11T05:42:19.422Z,100961.00
2023-05-11T05:44:45.910Z,100966.50
2023-05-11T05:47:12.302Z,100969.22
2023-05-11T05:49:38.673Z,100966.06
2023-05-11T05:52:05.012Z,100967.56
2023-05-11T05:54:31.370Z,100975.56
2023-05-11T05:56:57.737Z,100970.41
2023-05-11T05:59:24.392Z,100987.69
2023-05-11T06:01:51.374Z,100970.06
2023-05-11T06:04:17.830Z,100977.97
2023-05-11T06:06:44.481Z,100984.22
2023-05-11T06:09:10.864Z,100983.28
2023-05-11T06:11:38.133Z,100983.75
2023-05-11T06:14:04.501Z,100980.16
2023-05-11T06:16:31.115Z,100979.41
2023-05-11T06:18:57.613Z,100980.13
2023-05-11T06:21:24.025Z,100982.56
2023-05-11T06:23:50.378Z,100987.53
2023-05-11T06:26:17.053Z,100990.56
2023-05-11T06:28:43.411Z,100988.97
2023-05-11T06:31:09.899Z,100979.88
2023-05-11T06:33:36.361Z,100976.94
2023-05-11T06:36:06.824Z,100976.34
2023-05-11T06:38:34.240Z,100984.38
2023-05-11T06:41:00.657Z,100980.22
2023-05-11T06:43:27.025Z,100986.50
2023-05-11T06:45:53.476Z,100978.06
2023-05-11T06:48:20.091Z,100978.84
2023-05-11T06:50:46.514Z,100978.84
2023-05-11T06:53:13.520Z,100976.53
2023-05-11T06:55:39.904Z,100974.72
2023-05-11T06:58:06.295Z,100973.75
2023-05-11T07:00:32.658Z,100976.59
2023-05-11T07:02:59.094Z,100979.50
2023-05-11T07:05:25.499Z,100978.78
2023-05-11T07:07:51.972Z,100981.72
2023-05-11T07:10:18.611Z,100977.31
2023-05-11T07:12:45.322Z,100974.75
2023-05-11T07:15:12.399Z,100982.69
2023-05-11T07:17:38.798Z,100977.59
2023-05-11T07:20:05.872Z,100980.34
2023-05-11T07:22:32.272Z,100981.41
2023-05-11T07:25:00.456Z,100971.84
2023-05-11T07:27:26.821Z,100988.59
2023-05-11T07:29:53.178Z,100981.63
2023-05-11T07:32:19.535Z,100979.97
2023-05-11T07:34:45.895Z,100978.38
2023-05-11T07:37:12.284Z,100975.75
2023-05-11T07:39:38.675Z,100977.56
2023-05-11T07:42:05.052Z,100972.28
2023-05-11T07:44:31.431Z,100984.03
2023-05-11T07:46:58.544Z,100976.06
2023-05-11T07:49:31.538Z,100963.84
2023-05-11T07:52:09.132Z,100971.84
2023-05-11T07:54:35.534Z,100977.38
2023-05-11T07:57:02.108Z,100971.22
2023-05-11T07:59:28.468Z,100970.34
2023-05-11T08:01:54.894Z,100971.38
2023-05-11T08:04:21.261Z,100970.50
2023-05-11T08:06:47.636Z,100975.00
2023-05-11T08:09:14.939Z,100978.81
2023-05-11T08:11:41.828Z,100974.44
2023-05-11T08:14:08.208Z,100972.03
2023-05-11T08:16:36.999Z,100971.91
2023-05-11T08:19:03.586Z,100967.75
2023-05-11T08:21:30.536Z,100973.88
2023-05-11T08:23:56.920Z,100973.94
2023-05-11T08:26:23.260Z,100973.19
2023-05-11T08:28:49.628Z,100970.50
2023-05-11T08:31:18.459Z,100970.69
2023-05-11T08:33:45.165Z,100967.31
2023-05-11T08:36:13.502Z,100973.53
2023-05-11T08:38:40.333Z,100968.22
2023-05-11T08:41:07.673Z,100968.38
2023-05-11T08:43:39.682Z,100971.09
2023-05-11T08:46:07.852Z,100964.94
2023-05-11T08:48:34.379Z,100964.19
2023-05-11T08:51:02.120Z,100966.09
2023-05-11T08:53:28.829Z,100970.50
2023-05-11T08:55:58.147Z,100960.81
2023-05-11T08:58:24.792Z,100962.56
2023-05-11T09:00:52.005Z,100946.69
2023-05-11T09:03:19.512Z,100961.91
2023-05-11T09:05:47.282Z,100952.19
2023-05-11T09:08:14.704Z,100953.94
2023-05-11T09:10:42.367Z,100953.09
2023-05-11T09:13:08.780Z,100953.06
2023-05-11T09:15:38.121Z,100951.34
2023-05-11T09:18:05.485Z,100953.16
2023-05-11T09:20:33.411Z,100948.69
2023-05-11T09:23:00.431Z,100950.53
2023-05-11T09:25:31.741Z,100947.00
2023-05-11T09:27:59.515Z,100944.31
2023-05-11T09:30:25.983Z,100951.44
2023-05-11T09:32:54.604Z,100945.25
2023-05-11T09:35:29.747Z,100952.34
2023-05-11T09:38:12.138Z,100947.00
2023-05-11T09:40:43.223Z,100948.69
2023-05-11T09:43:20.876Z,100951.44
2023-05-11T09:45:48.794Z,100953.25
2023-05-11T09:48:21.084Z,100939.91
2023-05-11T09:50:48.721Z,100952.34
2023-05-11T09:53:15.154Z,100946.13
2023-05-11T09:55:55.403Z,100938.13
2023-05-11T09:58:22.094Z,100950.50
2023-05-11T10:00:52.563Z,100938.97
2023-05-11T10:03:20.163Z,100935.44
2023-05-11T10:05:57.979Z,100936.34
2023-05-11T10:08:34.205Z,100935.44
2023-05-11T10:11:02.577Z,100898.19
2023-05-11T10:13:32.110Z,100937.16
2023-05-11T10:15:59.232Z,100942.31
2023-05-11T10:18:26.453Z,100934.38
2023-05-11T10:20:53.403Z,100925.41
2023-05-11T10:23:20.976Z,100933.38
2023-05-11T10:25:48.017Z,100925.34
2023-05-11T10:28:15.066Z,100936.03
2023-05-11T10:30:41.942Z,100944.03
2023-05-11T10:33:09.538Z,100931.66
2023-05-11T10:35:38.378Z,100927.19
2023-05-11T10:38:06.617Z,100915.66
2023-05-11T10:40:38.454Z,100922.63
2023-05-11T10:43:08.447Z,100925.22
2023-05-11T10:45:59.877Z,100925.22
2023-05-11T10:48:54.038Z,100923.13
2023-05-11T10:51:37.976Z,100923.88
2023-05-11T10:54:18.528Z,100922.22
2023-05-11T10:57:00.306Z,100922.06
2023-05-11T11:00:09.760Z,100914.34
2023-05-11T11:02:37.487Z,100920.59
2023-05-11T11:05:10.587Z,100920.47
2023-05-11T11:08:07.111Z,100920.41
2023-05-11T11:10:35.924Z,100916.72
2023-05-11T11:13:07.939Z,100921.84
2023-05-11T11:15:52.797Z,100912.56
2023-05-11T11:18:27.314Z,100911.47
2023-05-11T11:20:55.825Z,100913.81
2023-05-11T11:23:41.167Z,100910.16
2023-05-11T11:26:09.952Z,100910.19
2023-05-11T11:28:54.371Z,100910.53
2023-05-11T11:31:27.960Z,100913.88
2023-05-11T11:33:58.779Z,100904.63
2023-05-11T11:36:58.491Z,100909.78
2023-05-11T11:39:30.398Z,100916.06
2023-05-11T11:42:04.804Z,100905.06
2023-05-11T11:44:31.390Z,100917.34
2023-05-11T11:47:14.268Z,100919.69
2023-05-11T11:49:43.212Z,100928.03
2023-05-11T11:52:31.190Z,100928.25
2023-05-11T11:55:02.339Z,100923.06
2023-05-11T11:57:34.734Z,100923.69
2023-05-11T12:00:07.212Z,100918.91
2023-05-11T12:02:34.914Z,100920.53
2023-05-11T12:05:09.548Z,100930.50
2023-05-11T12:07:38.843Z,100932.72
2023-05-11T12:10:05.658Z,100941.06
2023-05-11T12:12:32.341Z,100931.44
2023-05-11T12:14:59.880Z,100933.16
2023-05-11T12:17:29.389Z,100936.59
2023-05-11T12:20:12.035Z,100925.31
2023-05-11T12:22:38.392Z,100928.91
2023-05-11T12:25:08.817Z,100936.66
2023-05-11T12:27:35.187Z,100935.81
2023-05-11T12:30:01.822Z,100939.44
2023-05-11T12:32:29.221Z,100932.03
2023-05-11T12:35:04.484Z,100923.56
2023-05-11T12:37:31.502Z,100933.38
2023-05-11T12:39:58.614Z,100925.13
2023-05-11T12:42:25.313Z,100927.53
2023-05-11T12:44:52.252Z,100931.16
2023-05-11T12:47:18.828Z,100930.50
2023-05-11T12:49:45.306Z,100927.34
2023-05-11T12:52:13.486Z,100916.94
2023-05-11T12:54:43.388Z,100916.47
2023-05-11T12:57:24.383Z,100921.09
2023-05-11T13:00:05.987Z,100928.88
2023-05-11T13:02:32.443Z,100917.97
2023-05-11T13:04:59.020Z,100916.41
2023-05-11T13:07:27.532Z,100929.19
2023-05-11T13:09:58.383Z,100903.88
2023-05-11T13:12:25.720Z,100916.81
2023-05-11T13:15:08.983Z,100924.63
2023-05-11T13:17:37.414Z,100932.59
2023-05-11T13:20:34.634Z,100928.63
2023-05-11T13:23:08.279Z,100924.56
2023-05-11T13:25:53.055Z,100916.72
2023-05-11T13:28:22.082Z,100918.63
2023-05-11T13:30:48.732Z,100915.72
2023-05-11T13:33:15.384Z,100916.66
2023-05-11T13:35:43.227Z,100910.50
2023-05-11T13:38:10.658Z,100911.84
2023-05-11T13:40:37.896Z,100911.22
2023-05-11T13:43:04.587Z,100910.56
2023-05-11T13:45:30.993Z,100912.59
2023-05-11T13:47:57.413Z,100905.59
2023-05-11T13:50:25.132Z,100912.25
2023-05-11T13:52:54.522Z,100917.09
2023-05-11T13:55:21.608Z,100903.28
2023-05-11T13:57:48.269Z,100899.19
2023-05-11T14:00:15.443Z,100906.03
2023-05-11T14:02:41.894Z,100908.69
2023-05-11T14:05:08.926Z,100906.19
2023-05-11T14:07:46.268Z,100905.75
2023-05-11T14:10:14.845Z,100906.22
2023-05-11T14:12:41.385Z,100905.22
2023-05-11T14:15:08.468Z,100905.47
2023-05-11T14:17:34.929Z,100912.81
2023-05-11T14:20:01.467Z,100914.06
2023-05-11T14:22:29.098Z,100901.63
2023-05-11T14:24:56.076Z,100909.41
2023-05-11T14:27:23.357Z,100908.84
2023-05-11T14:29:52.035Z,100904.06
2023-05-11T14:32:19.410Z,100905.44
2023-05-11T14:34:48.981Z,100896.31
2023-05-11T14:37:15.741Z,100902.44
2023-05-11T14:39:47.772Z,100906.66
2023-05-11T14:42:14.408Z,100909.97
2023-05-11T14:44:41.666Z,100898.69
2023-05-11T14:47:08.726Z,100902.94
2023-05-11T14:49:35.188Z,100902.28
2023-05-11T14:52:01.902Z,100898.78
2023-05-11T14:54:28.288Z,100893.69
2023-05-11T14:56:56.179Z,100899.03
2023-05-11T14:59:26.086Z,100895.91
2023-05-11T15:01:52.476Z,100894.75
2023-05-11T15:04:19.251Z,100892.09
2023-05-11T15:06:46.139Z,100897.28
2023-05-11T15:09:12.586Z,100902.00
2023-05-11T15:11:39.017Z,100907.00
2023-05-11T15:14:06.880Z,100907.16
2023-05-11T15:16:33.309Z,100908.66
2023-05-11T15:18:59.937Z,100905.38
2023-05-11T15:21:27.459Z,100915.88
2023-05-11T15:23:53.846Z,100917.84
2023-05-11T15:26:21.444Z,100913.69
2023-05-11T15:28:47.869Z,100926.13
2023-05-11T15:31:14.678Z,100928.44
2023-05-11T15:33:41.420Z,100920.56
2023-05-11T15:36:13.192Z,100920.19
2023-05-11T15:38:40.250Z,100925.19
2023-05-11T15:41:07.680Z,100931.03
2023-05-11T15:43:34.087Z,100932.81
2023-05-11T15:46:00.549Z,100925.69
2023-05-11T15:48:26.949Z,100928.94
2023-05-11T15:50:53.337Z,100930.25
2023-05-11T15:53:19.777Z,100931.28
2023-05-11T15:55:50.515Z,100936.03
2023-05-11T15:58:18.005Z,100937.69
2023-05-11T16:00:44.502Z,100930.25
2023-05-11T16:03:11.007Z,100934.59
2023-05-11T16:05:38.357Z,100924.00
2023-05-11T16:08:06.355Z,100935.00
2023-05-11T16:10:33.006Z,100935.25
2023-05-11T16:12:59.469Z,100937.09
2023-05-11T16:15:26.080Z,100938.28
2023-05-11T16:17:52.581Z,100939.56
2023-05-11T16:20:19.186Z,100946.38
2023-05-11T16:22:47.482Z,100950.16
2023-05-11T16:25:13.964Z,100959.22
2023-05-11T16:27:40.490Z,100952.78
2023-05-11T16:30:18.276Z,100953.78
2023-05-11T16:32:50.729Z,100965.41
2023-05-11T16:35:17.141Z,100961.91
2023-05-11T16:37:43.516Z,100961.84
2023-05-11T16:40:09.966Z,100960.88
2023-05-11T16:42:36.353Z,100961.88
2023-05-11T16:45:02.705Z,100961.97
2023-05-11T16:47:29.094Z,100959.13
2023-05-11T16:49:55.541Z,100965.09
2023-05-11T16:52:21.914Z,100966.31
2023-05-11T16:54:48.298Z,100960.13
2023-05-11T16:57:14.659Z,100957.16
2023-05-11T16:59:41.265Z,100955.94
2023-05-11T17:02:08.233Z,100968.63
2023-05-11T17:04:34.683Z,100968.13
2023-05-11T17:07:01.140Z,100963.63
2023-05-11T17:09:27.973Z,100973.81
2023-05-11T17:11:55.206Z,100972.84
2023-05-11T17:14:21.583Z,100972.13
2023-05-11T17:16:48.069Z,100976.59
2023-05-11T17:19:14.557Z,100982.06
2023-05-11T17:21:41.289Z,100983.88
2023-05-11T17:24:08.105Z,100977.59
2023-05-11T17:26:46.286Z,100978.50
2023-05-11T17:29:15.450Z,100987.50
2023-05-11T17:31:42.146Z,100981.34
2023-05-11T17:34:09.273Z,100979.47
2023-05-11T17:36:36.122Z,100984.28
2023-05-11T17:39:02.589Z,100988.94
2023-05-11T17:41:28.983Z,100997.91
2023-05-11T17:43:55.399Z,100993.25
2023-05-11T17:46:21.885Z,100998.25
2023-05-11T17:48:48.409Z,101009.66
2023-05-11T17:51:14.803Z,101001.06
2023-05-11T17:53:41.855Z,101006.38
2023-05-11T17:56:09.925Z,101007.31
2023-05-11T17:58:36.336Z,101014.38
2023-05-11T18:01:15.614Z,101009.97
2023-05-11T18:03:42.360Z,101014.44
2023-05-11T18:06:09.005Z,101013.56
2023-05-11T18:08:36.667Z,101016.16
2023-05-11T18:11:03.244Z,101025.88
2023-05-11T18:13:30.930Z,101023.19
2023-05-11T18:15:58.450Z,101022.25
2023-05-11T18:18:25.151Z,101029.34
2023-05-11T18:20:51.660Z,101023.19
2023-05-11T18:23:18.559Z,101034.63
2023-05-11T18:25:44.967Z,101033.78
2023-05-11T18:28:11.408Z,101037.25
2023-05-11T18:30:42.009Z,101039.91
2023-05-11T18:33:08.445Z,101047.81
2023-05-11T18:35:35.136Z,101049.59
2023-05-11T18:38:04.120Z,101054.03
2023-05-11T18:40:30.510Z,101057.50
2023-05-11T18:42:56.903Z,101054.88
2023-05-11T18:45:23.274Z,101060.13
2023-05-11T18:47:50.268Z,101060.13
2023-05-11T18:50:16.763Z,101062.72
2023-05-11T18:52:43.186Z,101068.91
2023-05-11T18:55:10.136Z,101069.81
2023-05-11T18:57:38.039Z,101059.13
2023-05-11T19:00:05.440Z,101069.75
2023-05-11T19:02:33.065Z,101067.03
2023-05-11T19:04:59.517Z,101072.38
2023-05-11T19:07:25.947Z,101086.44
2023-05-11T19:09:52.617Z,101090.03
2023-05-11T19:12:19.689Z,101089.06
2023-05-11T19:14:47.482Z,101095.28
2023-05-11T19:17:14.066Z,101090.63
2023-05-11T19:19:40.534Z,101095.09
2023-05-11T19:22:07.746Z,101098.72
2023-05-11T19:24:35.683Z,101107.56
2023-05-11T19:27:07.453Z,101108.22
2023-05-11T19:29:35.231Z,101110.88
2023-05-11T19:32:02.007Z,101118.03
2023-05-11T19:34:28.502Z,101116.13
2023-05-11T19:36:54.876Z,101115.38
2023-05-11T19:39:21.298Z,101119.78
2023-05-11T19:41:47.674Z,101123.41
2023-05-11T19:44:14.045Z,101119.53
2023-05-11T19:46:46.230Z,101124.09
2023-05-11T19:49:14.893Z,101121.44
2023-05-11T19:51:41.252Z,101122.31
2023-05-11T19:54:07.794Z,101125.53
2023-05-11T19:56:34.175Z,101132.47
2023-05-11T19:59:01.222Z,101134.16
2023-05-11T20:01:27.665Z,101146.59
2023-05-11T20:03:54.222Z,101143.81
2023-05-11T20:06:20.735Z,101139.41
2023-05-11T20:08:48.832Z,101145.53
2023-05-11T20:11:15.398Z,101146.44
2023-05-11T20:13:42.396Z,101154.47
2023-05-11T20:16:08.876Z,101152.47
2023-05-11T20:18:35.333Z,101151.72
2023-05-11T20:21:01.759Z,101148.28
2023-05-11T20:23:28.164Z,101144.50
2023-05-11T20:25:55.069Z,101144.56
2023-05-11T20:28:22.097Z,101151.41
2023-05-11T20:30:48.714Z,101150.56
2023-05-11T20:35:44.427Z,101150.66
2023-05-11T20:38:10.804Z,101154.19
2023-05-11T20:40:37.182Z,101151.44
2023-05-11T20:43:03.646Z,101145.28
2023-05-11T20:45:30.037Z,101155.78
2023-05-11T20:47:56.477Z,101160.25
2023-05-11T20:50:23.428Z,101158.47
2023-05-11T20:52:49.964Z,101163.91
2023-05-11T20:55:17.721Z,101154.94
2023-05-11T20:57:44.233Z,101164.72
2023-05-11T21:00:11.432Z,101165.59
2023-05-11T21:02:37.918Z,101160.13
2023-05-11T21:05:04.467Z,101164.28
2023-05-11T21:07:30.932Z,101158.47
2023-05-11T21:09:57.376Z,101157.59
2023-05-11T21:12:23.772Z,101161.69
2023-05-11T21:14:50.199Z,101159.91
2023-05-11T21:17:16.744Z,101158.91
2023-05-11T21:19:43.226Z,101154.72
2023-05-11T21:22:09.636Z,101156.34
2023-05-11T21:24:37.588Z,101162.25
2023-05-11T21:27:04.201Z,101158.00
2023-05-11T21:29:30.627Z,101160.53
2023-05-11T21:31:56.993Z,101168.34
2023-05-11T21:34:23.368Z,101166.63
2023-05-11T21:36:49.777Z,101175.09
2023-05-11T21:39:16.154Z,101178.66
2023-05-11T21:41:42.532Z,101177.75
2023-05-11T21:44:08.894Z,101173.22
2023-05-11T21:46:35.428Z,101177.84
2023-05-11T21:49:01.881Z,101183.97
2023-05-11T21:51:28.274Z,101190.16
2023-05-11T21:53:57.561Z,101190.13
2023-05-11T21:56:25.026Z,101191.78
2023-05-11T21:58:51.414Z,101191.03
2023-05-11T22:01:17.805Z,101201.69
2023-05-11T22:03:44.352Z,101198.00
2023-05-11T22:06:10.903Z,101194.53
2023-05-11T22:08:37.366Z,101199.63
2023-05-11T22:11:04.100Z,101203.84
2023-05-11T22:13:30.476Z,101205.78
2023-05-11T22:15:56.891Z,101203.63
2023-05-11T22:18:23.409Z,101201.97
2023-05-11T22:20:49.828Z,101198.22
2023-05-11T22:23:16.211Z,101207.34
2023-05-11T22:25:42.600Z,101204.63
2023-05-11T22:28:08.999Z,101204.69
2023-05-11T22:30:37.362Z,101204.47
2023-05-11T22:33:03.906Z,101211.13
2023-05-11T22:35:30.406Z,101200.59
2023-05-11T22:37:56.790Z,101203.28
2023-05-11T22:40:23.196Z,101201.75
2023-05-11T22:42:49.564Z,101204.34
2023-05-11T22:45:16.430Z,101210.25
2023-05-11T22:47:42.888Z,101205.91
2023-05-11T22:50:11.878Z,101216.66
2023-05-11T22:52:38.608Z,101212.91
2023-05-11T22:55:05.519Z,101215.28
2023-05-11T22:57:31.888Z,101217.28
2023-05-11T22:59:58.248Z,101219.66
2023-05-11T23:02:24.647Z,101218.75
2023-05-11T23:04:52.408Z,101213.44
2023-05-11T23:07:19.445Z,101217.53
2023-05-11T23:09:45.835Z,101216.59
2023-05-11T23:12:12.756Z,101221.44
2023-05-11T23:14:39.150Z,101228.53
2023-05-11T23:17:05.533Z,101231.75
2023-05-11T23:19:32.081Z,101232.84
2023-05-11T23:21:58.607Z,101229.16
2023-05-11T23:24:24.997Z,101240.47
2023-05-11T23:26:51.361Z,101236.75
2023-05-11T23:29:17.755Z,101238.63
2023-05-11T23:31:44.192Z,101235.69
2023-05-11T23:34:10.577Z,101226.81
2023-05-11T23:36:36.951Z,101227.72
2023-05-11T23:39:03.351Z,101231.00
2023-05-11T23:41:29.720Z,101231.00
2023-05-11T23:43:56.076Z,101231.16
2023-05-11T23:46:22.436Z,101230.09
2023-05-11T23:48:48.809Z,101222.28
2023-05-11T23:51:16.464Z,101230.72
2023-05-11T23:53:42.924Z,101229.69
2023-05-11T23:56:09.320Z,101230.44
2023-05-11T23:58:35.729Z,101225.22
